createdAt,value
2023-08-13T00:01:43.867Z,100543.73
2023-08-13T00:04:34.840Z,100541.71
2023-08-13T00:07:28.504Z,100547.80
2023-08-13T00:10:24.390Z,100551.38
2023-08-13T00:13:15.057Z,100554.85
2023-08-13T00:16:05.936Z,100554.23
2023-08-13T00:18:58.832Z,100558.34
2023-08-13T00:22:06.037Z,100554.44
2023-08-13T00:24:58.165Z,100557.19
2023-08-13T00:27:49.062Z,100552.06
2023-08-13T00:30:39.930Z,100554.06
2023-08-13T00:33:33.841Z,100553.89
2023-08-13T00:36:27.366Z,100548.20
2023-08-13T00:39:18.310Z,100545.42
2023-08-13T00:42:09.681Z,100541.17
2023-08-13T00:45:02.661Z,100543.29
2023-08-13T00:47:53.505Z,100540.52
2023-08-13T00:50:45.747Z,100544.11
2023-08-13T00:53:41.323Z,100544.03
2023-08-13T00:56:34.185Z,100539.09
2023-08-13T00:59:25.368Z,100537.02
2023-08-13T01:02:16.652Z,100540.93
2023-08-13T01:05:08.048Z,100547.39
2023-08-13T01:08:05.041Z,100546.10
2023-08-13T01:10:59.722Z,100541.52
2023-08-13T01:13:55.462Z,100545.77
2023-08-13T01:16:46.171Z,100546.16
2023-08-13T01:19:37.168Z,100546.06
2023-08-13T01:22:28.704Z,100544.20
2023-08-13T01:25:19.744Z,100542.86
2023-08-13T01:28:14.629Z,100541.29
2023-08-13T01:31:11.021Z,100533.77
2023-08-13T01:34:03.871Z,100536.31
2023-08-13T01:36:55.232Z,100541.27
2023-08-13T01:39:49.999Z,100541.95
2023-08-13T01:42:42.820Z,100539.90
2023-08-13T01:45:35.790Z,100541.42
2023-08-13T01:48:31.703Z,100537.81
2023-08-13T01:51:35.960Z,100539.26
2023-08-13T01:54:34.284Z,100541.46
2023-08-13T01:57:25.385Z,100538.52
2023-08-13T02:00:19.171Z,100540.21
2023-08-13T02:03:30.104Z,100537.74
2023-08-13T02:06:20.694Z,100533.79
2023-08-13T02:09:23.813Z,100540.92
2023-08-13T02:12:14.721Z,100541.55
2023-08-13T02:15:06.515Z,100536.34
2023-08-13T02:17:59.715Z,100535.76
2023-08-13T02:20:53.095Z,100536.67
2023-08-13T02:23:43.812Z,100539.25
2023-08-13T02:26:37.811Z,100535.63
2023-08-13T02:29:31.536Z,100537.23
2023-08-13T02:32:24.545Z,100536.37
2023-08-13T02:35:17.514Z,100531.20
2023-08-13T02:38:11.427Z,100527.58
2023-08-13T02:41:04.553Z,100526.21
2023-08-13T02:43:58.782Z,100524.46
2023-08-13T02:47:02.201Z,100523.85
2023-08-13T02:50:04.156Z,100523.45
2023-08-13T02:52:54.841Z,100518.19
2023-08-13T02:55:54.350Z,100511.16
2023-08-13T02:58:45.001Z,100510.61
2023-08-13T03:01:40.195Z,100515.01
2023-08-13T03:04:33.421Z,100515.34
2023-08-13T03:07:27.285Z,100515.02
2023-08-13T03:10:17.867Z,100515.86
2023-08-13T03:13:08.451Z,100513.71
2023-08-13T03:15:59.482Z,100511.49
2023-08-13T03:18:50.291Z,100513.13
2023-08-13T03:21:42.841Z,100510.16
2023-08-13T03:24:33.498Z,100515.48
2023-08-13T03:27:27.315Z,100518.73
2023-08-13T03:30:19.529Z,100521.80
2023-08-13T03:33:10.886Z,100536.98
2023-08-13T03:36:02.401Z,100533.39
2023-08-13T03:38:53.441Z,100534.54
2023-08-13T03:41:47.089Z,100535.94
2023-08-13T03:44:37.873Z,100529.78
2023-08-13T03:47:29.629Z,100528.41
2023-08-13T03:50:24.186Z,100527.29
2023-08-13T03:53:15.005Z,100527.59
2023-08-13T03:56:09.746Z,100526.30
2023-08-13T03:59:07.899Z,100525.28
2023-08-13T04:02:00.281Z,100520.88
2023-08-13T04:04:51.593Z,100516.29
2023-08-13T04:07:42.813Z,100518.50
2023-08-13T04:10:33.809Z,100516.91
2023-08-13T04:13:27.002Z,100516.59
2023-08-13T04:16:17.902Z,100518.30
2023-08-13T04:19:09.759Z,100520.55
2023-08-13T04:22:07.930Z,100515.45
2023-08-13T04:24:58.655Z,100515.99
2023-08-13T04:27:49.414Z,100517.79
2023-08-13T04:30:42.447Z,100519.41
2023-08-13T04:33:33.063Z,100518.91
2023-08-13T04:36:26.713Z,100518.44
2023-08-13T04:39:18.067Z,100515.58
2023-08-13T04:42:09.780Z,100517.93
2023-08-13T04:45:05.680Z,100520.27
2023-08-13T04:47:59.390Z,100520.16
2023-08-13T04:50:50.316Z,100521.34
2023-08-13T04:53:42.444Z,100520.48
2023-08-13T04:56:42.450Z,100520.64
2023-08-13T04:59:35.894Z,100528.12
2023-08-13T05:02:37.911Z,100525.95
2023-08-13T05:05:30.314Z,100526.30
2023-08-13T05:08:23.768Z,100530.44
2023-08-13T05:11:14.526Z,100528.86
2023-08-13T05:14:08.005Z,100528.64
2023-08-13T05:16:58.901Z,100530.77
2023-08-13T05:19:53.807Z,100529.31
2023-08-13T05:22:44.612Z,100531.80
2023-08-13T05:25:39.780Z,100523.79
2023-08-13T05:28:39.619Z,100525.30
2023-08-13T05:31:33.037Z,100525.89
2023-08-13T05:34:28.298Z,100525.11
2023-08-13T05:37:26.728Z,100521.58
2023-08-13T05:40:28.161Z,100519.82
2023-08-13T05:43:18.836Z,100519.42
2023-08-13T05:46:12.242Z,100521.09
2023-08-13T05:49:08.958Z,100521.45
2023-08-13T05:52:09.552Z,100523.34
2023-08-13T05:55:05.361Z,100524.09
2023-08-13T05:57:59.020Z,100523.46
2023-08-13T06:00:49.799Z,100524.90
2023-08-13T06:03:45.969Z,100520.28
2023-08-13T06:06:56.829Z,100521.90
2023-08-13T06:09:47.498Z,100523.90
2023-08-13T06:12:38.260Z,100520.83
2023-08-13T06:15:37.836Z,100521.47
2023-08-13T06:18:31.818Z,100521.52
2023-08-13T06:21:26.073Z,100521.44
2023-08-13T06:24:16.987Z,100525.02
2023-08-13T06:27:07.791Z,100523.55
2023-08-13T06:30:10.725Z,100518.79
2023-08-13T06:33:02.315Z,100519.95
2023-08-13T06:35:53.398Z,100526.31
2023-08-13T06:38:52.893Z,100523.45
2023-08-13T06:41:43.528Z,100529.36
2023-08-13T06:44:36.493Z,100528.06
2023-08-13T06:47:27.532Z,100531.52
2023-08-13T06:50:23.268Z,100528.17
2023-08-13T06:53:13.844Z,100526.41
2023-08-13T06:56:05.779Z,100529.04
2023-08-13T06:58:56.480Z,100533.63
2023-08-13T07:01:49.709Z,100530.36
2023-08-13T07:04:40.609Z,100527.88
2023-08-13T07:07:31.561Z,100530.45
2023-08-13T07:10:24.985Z,100537.40
2023-08-13T07:13:18.534Z,100537.48
2023-08-13T07:16:14.804Z,100533.88
2023-08-13T07:19:08.653Z,100534.31
2023-08-13T07:21:59.511Z,100533.50
2023-08-13T07:24:50.378Z,100534.13
2023-08-13T07:27:41.581Z,100535.52
2023-08-13T07:30:32.475Z,100539.05
2023-08-13T07:33:25.877Z,100535.51
2023-08-13T07:36:17.011Z,100532.83
2023-08-13T07:39:11.666Z,100538.17
2023-08-13T07:42:02.239Z,100539.89
2023-08-13T07:44:53.002Z,100540.05
2023-08-13T07:47:43.878Z,100533.45
2023-08-13T07:50:35.708Z,100534.94
2023-08-13T07:53:26.164Z,100530.10
2023-08-13T07:56:16.839Z,100531.12
2023-08-13T07:59:07.540Z,100528.66
2023-08-13T08:01:58.087Z,100529.86
2023-08-13T08:04:48.985Z,100526.96
2023-08-13T08:07:39.702Z,100526.61
2023-08-13T08:10:30.382Z,100527.78
2023-08-13T08:13:20.860Z,100530.00
2023-08-13T08:16:11.506Z,100527.70
2023-08-13T08:19:02.449Z,100531.13
2023-08-13T08:21:53.048Z,100534.86
2023-08-13T08:24:43.832Z,100537.48
2023-08-13T08:27:34.402Z,100530.83
2023-08-13T08:30:26.025Z,100521.98
2023-08-13T08:33:16.358Z,100523.09
2023-08-13T08:36:07.077Z,100528.13
2023-08-13T08:38:59.604Z,100524.20
2023-08-13T08:41:50.315Z,100524.57
2023-08-13T08:44:44.252Z,100522.66
2023-08-13T08:47:35.660Z,100514.70
2023-08-13T08:50:26.254Z,100522.48
2023-08-13T08:53:17.202Z,100519.52
2023-08-13T08:56:08.067Z,100513.33
2023-08-13T08:58:58.526Z,100509.52
2023-08-13T09:01:48.929Z,100510.64
2023-08-13T09:04:39.538Z,100512.10
2023-08-13T09:07:33.552Z,100512.50
2023-08-13T09:10:24.066Z,100511.38
2023-08-13T09:13:14.595Z,100508.11
2023-08-13T09:16:05.336Z,100508.83
2023-08-13T09:19:04.533Z,100511.88
2023-08-13T09:22:02.876Z,100510.79
2023-08-13T09:24:55.246Z,100511.64
2023-08-13T09:27:47.382Z,100509.17
2023-08-13T09:30:37.646Z,100505.66
2023-08-13T09:33:28.820Z,100504.50
2023-08-13T09:36:19.346Z,100505.39
2023-08-13T09:39:09.963Z,100504.04
2023-08-13T09:42:02.497Z,100510.68
2023-08-13T09:44:57.472Z,100509.77
2023-08-13T09:47:50.390Z,100511.20
2023-08-13T09:50:41.853Z,100514.68
2023-08-13T09:53:33.940Z,100515.15
2023-08-13T09:56:25.205Z,100511.09
2023-08-13T09:59:18.232Z,100508.05
2023-08-13T10:02:09.547Z,100504.98
2023-08-13T10:05:03.357Z,100505.33
2023-08-13T10:07:54.176Z,100504.02
2023-08-13T10:10:44.727Z,100497.77
2023-08-13T10:13:35.326Z,100504.55
2023-08-13T10:16:29.520Z,100506.41
2023-08-13T10:19:29.820Z,100509.80
2023-08-13T10:22:36.736Z,100508.50
2023-08-13T10:25:31.192Z,100503.44
2023-08-13T10:28:33.562Z,100508.65
2023-08-13T10:31:31.896Z,100507.20
2023-08-13T10:34:43.542Z,100509.44
2023-08-13T10:37:34.257Z,100504.70
2023-08-13T10:40:25.271Z,100508.80
2023-08-13T10:43:23.867Z,100511.45
2023-08-13T10:46:22.044Z,100505.96
2023-08-13T10:49:12.674Z,100500.38
2023-08-13T10:52:03.942Z,100500.75
2023-08-13T10:54:59.317Z,100506.41
2023-08-13T10:57:54.369Z,100509.73
2023-08-13T11:00:45.947Z,100510.44
2023-08-13T11:03:36.810Z,100505.37
2023-08-13T11:06:29.451Z,100504.24
2023-08-13T11:09:20.435Z,100504.92
2023-08-13T11:12:12.105Z,100501.72
2023-08-13T11:15:02.841Z,100502.10
2023-08-13T11:17:53.649Z,100508.25
2023-08-13T11:20:46.008Z,100505.96
2023-08-13T11:23:36.831Z,100507.80
2023-08-13T11:26:31.317Z,100505.11
2023-08-13T11:29:22.816Z,100510.48
2023-08-13T11:32:16.989Z,100506.29
2023-08-13T11:35:10.972Z,100503.24
2023-08-13T11:38:02.178Z,100502.58
2023-08-13T11:40:52.924Z,100500.95
2023-08-13T11:43:44.169Z,100506.34
2023-08-13T11:46:48.649Z,100513.58
2023-08-13T11:49:45.646Z,100511.18
2023-08-13T11:52:36.408Z,100510.84
2023-08-13T11:55:42.757Z,100514.89
2023-08-13T11:58:33.401Z,100502.91
2023-08-13T12:01:26.374Z,100502.02
2023-08-13T12:04:17.133Z,100506.00
2023-08-13T12:07:11.508Z,100506.20
2023-08-13T12:10:01.665Z,100501.73
2023-08-13T12:12:52.889Z,100497.66
2023-08-13T12:15:43.717Z,100494.23
2023-08-13T12:18:34.322Z,100499.14
2023-08-13T12:21:24.842Z,100499.64
2023-08-13T12:24:15.384Z,100489.85
2023-08-13T12:27:06.162Z,100490.46
2023-08-13T12:29:56.766Z,100488.67
2023-08-13T12:32:47.498Z,100491.24
2023-08-13T12:35:38.207Z,100489.77
2023-08-13T12:38:28.889Z,100492.44
2023-08-13T12:41:30.435Z,100492.97
2023-08-13T12:44:28.981Z,100493.90
2023-08-13T12:47:19.721Z,100491.73
2023-08-13T12:50:10.871Z,100488.95
2023-08-13T12:53:04.656Z,100490.96
2023-08-13T12:55:55.508Z,100491.27
2023-08-13T12:58:47.775Z,100487.25
2023-08-13T13:01:38.432Z,100485.16
2023-08-13T13:04:30.850Z,100485.05
2023-08-13T13:07:21.872Z,100480.16
2023-08-13T13:10:12.873Z,100479.60
2023-08-13T13:13:03.680Z,100479.70
2023-08-13T13:15:54.464Z,100478.82
2023-08-13T13:18:45.211Z,100479.27
2023-08-13T13:21:35.766Z,100479.90
2023-08-13T13:24:26.477Z,100485.06
2023-08-13T13:27:16.924Z,100486.03
2023-08-13T13:30:08.792Z,100486.60
2023-08-13T13:32:59.556Z,100487.45
2023-08-13T13:35:50.510Z,100491.54
2023-08-13T13:38:41.219Z,100496.34
2023-08-13T13:41:33.180Z,100493.77
2023-08-13T13:44:24.362Z,100488.75
2023-08-13T13:47:14.547Z,100492.67
2023-08-13T13:50:05.419Z,100488.23
2023-08-13T13:53:03.392Z,100494.95
2023-08-13T13:56:02.009Z,100487.45
2023-08-13T13:58:52.858Z,100483.89
2023-08-13T14:01:44.990Z,100478.32
2023-08-13T14:04:35.580Z,100476.61
2023-08-13T14:07:26.095Z,100473.41
2023-08-13T14:10:16.634Z,100479.38
2023-08-13T14:13:08.075Z,100472.76
2023-08-13T14:16:02.703Z,100469.21
2023-08-13T14:18:56.274Z,100469.87
2023-08-13T14:21:46.883Z,100469.25
2023-08-13T14:24:37.521Z,100459.16
2023-08-13T14:27:28.032Z,100457.36
2023-08-13T14:30:18.754Z,100463.03
2023-08-13T14:33:09.374Z,100458.30
2023-08-13T14:36:00.571Z,100458.08
2023-08-13T14:38:53.174Z,100464.95
2023-08-13T14:41:43.474Z,100458.86
2023-08-13T14:44:34.593Z,100457.36
2023-08-13T14:47:25.878Z,100460.67
2023-08-13T14:50:16.550Z,100455.33
2023-08-13T14:53:07.139Z,100464.11
2023-08-13T14:55:57.667Z,100462.52
2023-08-13T14:58:48.156Z,100469.48
2023-08-13T15:01:38.910Z,100467.83
2023-08-13T15:04:29.403Z,100465.73
2023-08-13T15:07:22.216Z,100464.52
2023-08-13T15:10:12.797Z,100473.50
2023-08-13T15:13:05.316Z,100467.25
2023-08-13T15:15:56.021Z,100466.46
2023-08-13T15:18:46.588Z,100459.58
2023-08-13T15:21:37.011Z,100449.10
2023-08-13T15:24:27.430Z,100452.75
2023-08-13T15:27:17.818Z,100453.23
2023-08-13T15:30:09.452Z,100447.52
2023-08-13T15:32:59.646Z,100446.65
2023-08-13T15:35:54.290Z,100442.70
2023-08-13T15:38:44.815Z,100444.04
2023-08-13T15:41:35.359Z,100440.80
2023-08-13T15:44:25.941Z,100436.70
2023-08-13T15:47:16.482Z,100433.15
2023-08-13T15:50:07.518Z,100435.84
2023-08-13T15:52:58.023Z,100432.72
2023-08-13T15:55:48.822Z,100431.71
2023-08-13T15:58:39.421Z,100432.33
2023-08-13T16:01:30.482Z,100435.02
2023-08-13T16:04:20.922Z,100432.66
2023-08-13T16:07:11.426Z,100435.96
2023-08-13T16:10:03.353Z,100429.35
2023-08-13T16:12:53.727Z,100428.95
2023-08-13T16:15:44.226Z,100425.35
2023-08-13T16:18:34.817Z,100427.79
2023-08-13T16:21:25.370Z,100430.77
2023-08-13T16:24:15.835Z,100435.52
2023-08-13T16:27:06.517Z,100433.86
2023-08-13T16:29:57.688Z,100435.39
2023-08-13T16:32:47.986Z,100432.20
2023-08-13T16:35:38.543Z,100436.86
2023-08-13T16:38:29.070Z,100437.05
2023-08-13T16:41:20.415Z,100438.76
2023-08-13T16:44:10.949Z,100444.95
2023-08-13T16:47:01.646Z,100444.46
2023-08-13T16:49:58.492Z,100447.77
2023-08-13T16:52:55.760Z,100444.50
2023-08-13T16:55:46.239Z,100445.48
2023-08-13T16:58:36.727Z,100444.85
2023-08-13T17:01:27.285Z,100442.27
2023-08-13T17:04:17.590Z,100436.95
2023-08-13T17:07:08.649Z,100437.16
2023-08-13T17:09:59.229Z,100436.85
2023-08-13T17:12:49.785Z,100435.23
2023-08-13T17:15:40.145Z,100434.27
2023-08-13T17:18:30.678Z,100435.16
2023-08-13T17:21:21.379Z,100440.34
2023-08-13T17:24:11.842Z,100444.91
2023-08-13T17:27:04.540Z,100435.59
2023-08-13T17:29:55.395Z,100437.62
2023-08-13T17:32:46.035Z,100438.79
2023-08-13T17:35:36.598Z,100439.80
2023-08-13T17:38:27.113Z,100439.28
2023-08-13T17:41:17.677Z,100436.95
2023-08-13T17:44:08.504Z,100434.63
2023-08-13T17:46:59.033Z,100432.26
2023-08-13T17:49:49.642Z,100434.62
2023-08-13T17:52:40.377Z,100433.50
2023-08-13T17:55:31.273Z,100430.44
2023-08-13T17:58:21.870Z,100429.77
2023-08-13T18:01:12.384Z,100433.88
2023-08-13T18:04:03.209Z,100434.86
2023-08-13T18:06:53.770Z,100436.99
2023-08-13T18:09:44.328Z,100431.13
2023-08-13T18:12:35.171Z,100437.10
2023-08-13T18:15:25.941Z,100436.45
2023-08-13T18:18:16.716Z,100438.56
2023-08-13T18:21:07.301Z,100437.65
2023-08-13T18:23:57.870Z,100442.85
2023-08-13T18:26:49.521Z,100444.27
2023-08-13T18:29:40.122Z,100448.41
2023-08-13T18:32:31.704Z,100446.48
2023-08-13T18:35:22.478Z,100448.43
2023-08-13T18:38:15.149Z,100452.64
2023-08-13T18:41:09.113Z,100456.38
2023-08-13T18:43:59.708Z,100455.18
2023-08-13T18:46:50.598Z,100458.42
2023-08-13T18:49:41.365Z,100463.24
2023-08-13T18:52:31.987Z,100464.61
2023-08-13T18:55:22.608Z,100463.90
2023-08-13T18:58:13.173Z,100459.90
2023-08-13T19:01:04.530Z,100456.25
2023-08-13T19:03:54.690Z,100452.96
2023-08-13T19:06:45.584Z,100454.57
2023-08-13T19:09:36.197Z,100454.31
2023-08-13T19:12:26.728Z,100456.02
2023-08-13T19:15:17.343Z,100457.23
2023-08-13T19:18:08.136Z,100455.52
2023-08-13T19:20:59.037Z,100456.02
2023-08-13T19:23:49.617Z,100460.84
2023-08-13T19:26:40.301Z,100461.58
2023-08-13T19:29:30.815Z,100463.80
2023-08-13T19:32:21.238Z,100465.10
2023-08-13T19:35:12.098Z,100471.70
2023-08-13T19:38:02.808Z,100477.50
2023-08-13T19:40:56.459Z,100484.15
2023-08-13T19:43:46.982Z,100485.98
2023-08-13T19:46:37.521Z,100482.23
2023-08-13T19:49:28.145Z,100487.02
2023-08-13T19:52:18.958Z,100484.82
2023-08-13T19:55:12.288Z,100484.21
2023-08-13T19:58:02.885Z,100490.13
2023-08-13T20:00:53.467Z,100492.07
2023-08-13T20:03:44.143Z,100493.23
2023-08-13T20:06:34.973Z,100495.33
2023-08-13T20:09:25.557Z,100493.56
2023-08-13T20:12:16.592Z,100492.08
2023-08-13T20:15:08.038Z,100495.89
2023-08-13T20:17:58.576Z,100490.92
2023-08-13T20:20:55.574Z,100493.89
2023-08-13T20:23:46.309Z,100493.30
2023-08-13T20:26:38.322Z,100489.90
2023-08-13T20:29:28.965Z,100492.19
2023-08-13T20:32:19.839Z,100490.25
2023-08-13T20:35:11.664Z,100488.39
2023-08-13T20:38:02.309Z,100487.11
2023-08-13T20:40:58.161Z,100478.06
2023-08-13T20:43:48.724Z,100472.70
2023-08-13T20:46:39.431Z,100468.52
2023-08-13T20:49:29.924Z,100468.70
2023-08-13T20:52:20.542Z,100471.58
2023-08-13T20:55:11.218Z,100472.99
2023-08-13T20:58:01.804Z,100475.55
2023-08-13T21:00:53.131Z,100475.33
2023-08-13T21:03:43.895Z,100476.88
2023-08-13T21:06:34.557Z,100478.45
2023-08-13T21:09:27.294Z,100483.05
2023-08-13T21:12:19.815Z,100481.05
2023-08-13T21:15:11.176Z,100485.41
2023-08-13T21:18:02.004Z,100487.33
2023-08-13T21:20:52.708Z,100485.58
2023-08-13T21:23:43.285Z,100487.31
2023-08-13T21:26:35.770Z,100483.86
2023-08-13T21:29:26.403Z,100480.33
2023-08-13T21:32:17.286Z,100475.76
2023-08-13T21:35:12.023Z,100474.09
2023-08-13T21:38:03.393Z,100470.27
2023-08-13T21:40:54.117Z,100468.65
2023-08-13T21:43:45.091Z,100469.14
2023-08-13T21:46:35.700Z,100468.98
2023-08-13T21:49:27.088Z,100467.52
2023-08-13T21:52:18.799Z,100465.56
2023-08-13T21:55:10.520Z,100462.32
2023-08-13T21:58:01.226Z,100458.16
2023-08-13T22:00:51.896Z,100460.27
2023-08-13T22:03:42.717Z,100471.44
2023-08-13T22:06:33.414Z,100474.45
2023-08-13T22:09:24.081Z,100471.77
2023-08-13T22:12:15.037Z,100468.15
2023-08-13T22:15:06.764Z,100468.55
2023-08-13T22:17:57.514Z,100468.80
2023-08-13T22:20:48.677Z,100472.30
2023-08-13T22:23:39.352Z,100475.13
2023-08-13T22:26:30.031Z,100470.47
2023-08-13T22:29:20.747Z,100472.43
2023-08-13T22:32:11.630Z,100470.94
2023-08-13T22:35:02.493Z,100471.52
2023-08-13T22:37:53.033Z,100473.42
2023-08-13T22:40:43.644Z,100473.05
2023-08-13T22:43:34.300Z,100469.14
2023-08-13T22:46:25.043Z,100467.73
2023-08-13T22:49:30.679Z,100466.14
2023-08-13T22:52:21.294Z,100464.47
2023-08-13T22:55:12.204Z,100466.27
2023-08-13T22:58:02.955Z,100466.89
2023-08-13T23:00:53.488Z,100465.35
2023-08-13T23:03:44.219Z,100464.80
2023-08-13T23:06:35.174Z,100465.17
2023-08-13T23:09:25.922Z,100467.52
2023-08-13T23:12:16.758Z,100466.67
2023-08-13T23:15:08.342Z,100461.85
2023-08-13T23:17:59.011Z,100459.71
2023-08-13T23:20:49.779Z,100458.46
2023-08-13T23:23:40.371Z,100454.60
2023-08-13T23:26:31.131Z,100448.23
2023-08-13T23:29:22.351Z,100447.74
2023-08-13T23:32:13.555Z,100445.83
2023-08-13T23:35:04.237Z,100440.88
2023-08-13T23:37:54.936Z,100440.58
2023-08-13T23:40:46.378Z,100437.63
2023-08-13T23:43:36.900Z,100430.05
2023-08-13T23:46:27.753Z,100428.63
2023-08-13T23:49:18.666Z,100430.38
2023-08-13T23:52:09.627Z,100429.04
2023-08-13T23:55:00.349Z,100429.88
2023-08-13T23:57:50.964Z,100428.66
